createdAt,value
2022-12-28T12:39:14.420Z,7.15
2022-12-28T12:42:01.883Z,7.18
2022-12-28T12:44:37.287Z,7.24
2022-12-28T12:47:12.573Z,7.24
2022-12-28T12:49:41.766Z,7.31
2022-12-28T12:52:26.084Z,7.33
2022-12-28T12:55:04.606Z,7.31
2022-12-28T12:57:46.698Z,7.33
2022-12-28T13:00:13.006Z,7.36
2022-12-28T13:02:58.235Z,7.36
2022-12-28T13:05:25.467Z,7.40
2022-12-28T13:07:51.724Z,7.40
2022-12-28T13:10:44.228Z,7.42
2022-12-28T13:13:13.990Z,7.41
2022-12-28T13:15:42.823Z,7.41
2022-12-28T13:18:44.540Z,7.41
2022-12-28T13:21:12.108Z,7.43
2022-12-28T13:23:42.925Z,7.49
2022-12-28T13:26:09.249Z,7.52
2022-12-28T13:28:35.701Z,7.42
2022-12-28T13:31:09.649Z,7.44
2022-12-28T13:33:35.908Z,7.46
2022-12-28T13:36:15.022Z,7.41
2022-12-28T13:38:41.294Z,7.41
2022-12-28T13:41:09.267Z,7.43
2022-12-28T13:43:54.180Z,7.44
2022-12-28T13:46:20.446Z,7.44
2022-12-28T13:48:47.362Z,7.39
2022-12-28T13:51:14.004Z,7.35
2022-12-28T13:53:40.581Z,7.35
2022-12-28T13:56:06.807Z,7.37
2022-12-28T13:58:33.044Z,7.39
2022-12-28T14:01:00.207Z,7.36
2022-12-28T14:03:26.502Z,7.37
2022-12-28T14:05:53.586Z,7.36
2022-12-28T14:08:19.828Z,7.39
2022-12-28T14:10:46.037Z,7.37
2022-12-28T14:13:12.248Z,7.38
2022-12-28T14:15:41.438Z,7.40
2022-12-28T14:18:07.919Z,7.39
2022-12-28T14:20:45.417Z,7.42
2022-12-28T14:23:21.434Z,7.43
2022-12-28T14:25:47.700Z,7.39
2022-12-28T14:28:18.057Z,7.42
2022-12-28T14:30:44.345Z,7.41
2022-12-28T14:33:24.689Z,7.43
2022-12-28T14:35:52.574Z,7.43
2022-12-28T14:38:22.620Z,7.45
2022-12-28T14:40:55.446Z,7.49
2022-12-28T14:43:23.186Z,7.53
2022-12-28T14:46:05.133Z,7.50
2022-12-28T14:48:37.167Z,7.57
2022-12-28T14:51:22.929Z,7.47
2022-12-28T14:54:07.878Z,7.55
2022-12-28T14:56:34.092Z,7.56
2022-12-28T14:59:00.643Z,7.53
2022-12-28T15:01:39.465Z,7.59
2022-12-28T15:04:05.724Z,7.60
2022-12-28T15:06:32.071Z,7.57
2022-12-28T15:08:58.510Z,7.61
2022-12-28T15:11:24.995Z,7.67
2022-12-28T15:13:51.219Z,7.66
2022-12-28T15:16:18.171Z,7.64
2022-12-28T15:18:44.472Z,7.70
2022-12-28T15:21:14.306Z,7.65
2022-12-28T15:23:40.527Z,7.72
2022-12-28T15:26:10.409Z,7.69
2022-12-28T15:28:36.718Z,7.72
2022-12-28T15:31:06.611Z,7.71
2022-12-28T15:33:33.835Z,7.74
2022-12-28T15:36:03.931Z,7.72
2022-12-28T15:38:30.141Z,7.72
2022-12-28T15:40:56.357Z,7.75
2022-12-28T15:43:22.568Z,7.83
2022-12-28T15:45:55.369Z,7.82
2022-12-28T15:48:21.584Z,7.81
2022-12-28T15:50:47.813Z,7.83
2022-12-28T15:53:14.032Z,7.82
2022-12-28T15:55:40.344Z,7.94
2022-12-28T15:58:06.555Z,7.86
2022-12-28T16:00:32.827Z,7.87
2022-12-28T16:02:59.240Z,7.88
2022-12-28T16:05:25.616Z,7.92
2022-12-28T16:07:51.822Z,7.88
2022-12-28T16:10:18.031Z,7.94
2022-12-28T16:12:44.391Z,7.91
2022-12-28T16:15:10.673Z,7.90
2022-12-28T16:17:43.337Z,7.91
2022-12-28T16:20:16.119Z,7.96
2022-12-28T16:22:42.338Z,8.04
2022-12-28T16:25:08.598Z,8.04
2022-12-28T16:27:34.820Z,8.02
2022-12-28T16:30:01.038Z,8.05
2022-12-28T16:32:27.268Z,7.95
2022-12-28T16:34:53.939Z,7.98
2022-12-28T16:37:20.163Z,7.99
2022-12-28T16:39:46.367Z,8.02
2022-12-28T16:42:12.586Z,8.02
2022-12-28T16:44:38.799Z,8.07
2022-12-28T16:47:05.077Z,8.00
2022-12-28T16:49:31.301Z,8.05
2022-12-28T16:51:57.576Z,8.02
2022-12-28T16:54:24.265Z,7.96
2022-12-28T16:56:50.733Z,8.01
2022-12-28T16:59:17.871Z,8.02
2022-12-28T17:01:44.354Z,7.96
2022-12-28T17:04:10.657Z,7.97
2022-12-28T17:06:36.885Z,7.97
2022-12-28T17:09:03.427Z,8.01
2022-12-28T17:11:29.719Z,7.96
2022-12-28T17:13:59.780Z,8.01
2022-12-28T17:16:26.037Z,7.98
2022-12-28T17:18:52.292Z,8.02
2022-12-28T17:21:18.501Z,8.06
2022-12-28T17:23:44.704Z,8.00
2022-12-28T17:26:10.959Z,7.97
2022-12-28T17:28:37.197Z,7.99
2022-12-28T17:31:07.308Z,7.95
2022-12-28T17:33:38.885Z,8.04
2022-12-28T17:36:05.894Z,8.02
2022-12-28T17:38:32.090Z,8.01
2022-12-28T17:40:58.310Z,8.03
2022-12-28T17:43:24.555Z,8.07
2022-12-28T17:45:50.797Z,8.07
2022-12-28T17:48:17.060Z,8.10
2022-12-28T17:50:43.479Z,8.11
2022-12-28T17:53:09.882Z,8.08
2022-12-28T17:55:36.147Z,8.08
2022-12-28T17:58:02.366Z,8.11
2022-12-28T18:00:28.620Z,8.09
2022-12-28T18:02:55.048Z,8.05
2022-12-28T18:05:21.377Z,8.09
2022-12-28T18:07:47.635Z,8.04
2022-12-28T18:10:13.847Z,8.00
2022-12-28T18:12:40.094Z,8.00
2022-12-28T18:15:06.542Z,8.01
2022-12-28T18:17:32.786Z,7.99
2022-12-28T18:19:59.002Z,8.02
2022-12-28T18:22:25.246Z,8.07
2022-12-28T18:24:51.478Z,8.01
2022-12-28T18:27:17.780Z,8.00
2022-12-28T18:29:44.378Z,7.94
2022-12-28T18:32:10.668Z,8.00
2022-12-28T18:34:36.903Z,7.98
2022-12-28T18:37:03.188Z,8.00
2022-12-28T18:39:29.463Z,7.96
2022-12-28T18:41:55.727Z,7.93
2022-12-28T18:44:21.961Z,7.96
2022-12-28T18:46:48.275Z,7.90
2022-12-28T18:49:14.527Z,7.93
2022-12-28T18:51:40.781Z,7.95
2022-12-28T18:54:07.094Z,7.95
2022-12-28T18:56:33.293Z,7.93
2022-12-28T18:58:59.525Z,7.88
2022-12-28T19:02:05.418Z,7.80
2022-12-28T19:04:13.190Z,7.87
2022-12-28T19:06:39.593Z,7.89
2022-12-28T19:09:06.019Z,7.94
2022-12-28T19:11:32.542Z,7.94
2022-12-28T19:13:58.861Z,7.95
2022-12-28T19:16:31.105Z,7.90
2022-12-28T19:18:58.129Z,7.84
2022-12-28T19:21:25.430Z,7.85
2022-12-28T19:23:51.808Z,7.85
2022-12-28T19:26:18.399Z,7.84
2022-12-28T19:28:44.689Z,7.80
2022-12-28T19:31:10.915Z,7.89
2022-12-28T19:33:37.205Z,7.86
2022-12-28T19:36:03.529Z,7.80
2022-12-28T19:38:29.802Z,7.83
2022-12-28T19:40:56.181Z,7.84
2022-12-28T19:43:22.499Z,7.85
2022-12-28T19:45:48.734Z,7.83
2022-12-28T19:48:14.955Z,7.84
2022-12-28T19:50:41.439Z,7.79
2022-12-28T19:53:07.686Z,7.76
2022-12-28T19:55:33.890Z,7.77
2022-12-28T19:58:00.648Z,7.72
2022-12-28T20:00:26.925Z,7.72
2022-12-28T20:02:53.311Z,7.69
2022-12-28T20:05:19.767Z,7.73
2022-12-28T20:07:46.423Z,7.70
2022-12-28T20:10:12.789Z,7.71
2022-12-28T20:12:39.004Z,7.71
2022-12-28T20:15:05.638Z,7.68
2022-12-28T20:17:31.928Z,7.64
2022-12-28T20:19:58.179Z,7.65
2022-12-28T20:22:24.397Z,7.67
2022-12-28T20:24:50.622Z,7.70
2022-12-28T20:27:16.821Z,7.66
2022-12-28T20:29:43.101Z,7.63
2022-12-28T20:32:09.303Z,7.68
2022-12-28T20:34:35.504Z,7.61
2022-12-28T20:37:01.904Z,7.62
2022-12-28T20:39:28.139Z,7.57
2022-12-28T20:41:54.347Z,7.56
2022-12-28T20:44:21.985Z,7.52
2022-12-28T20:46:50.517Z,7.56
2022-12-28T20:49:16.875Z,7.57
2022-12-28T20:51:44.155Z,7.57
2022-12-28T20:54:10.536Z,7.55
2022-12-28T20:56:36.769Z,7.53
2022-12-28T20:59:03.219Z,7.56
2022-12-28T21:01:29.661Z,7.61
2022-12-28T21:03:56.008Z,7.58
2022-12-28T21:06:22.241Z,7.53
2022-12-28T21:08:48.462Z,7.59
2022-12-28T21:11:14.679Z,7.57
2022-12-28T21:13:44.706Z,7.52
2022-12-28T21:16:11.341Z,7.55
2022-12-28T21:18:37.628Z,7.54
2022-12-28T21:21:03.942Z,7.55
2022-12-28T21:23:30.314Z,7.48
2022-12-28T21:26:00.257Z,7.58
2022-12-28T21:28:26.473Z,7.61
2022-12-28T21:30:53.230Z,7.58
2022-12-28T21:33:19.431Z,7.53
2022-12-28T21:35:55.553Z,7.52
2022-12-28T21:38:21.759Z,7.53
2022-12-28T21:40:56.043Z,7.51
2022-12-28T21:43:23.100Z,7.47
2022-12-28T21:46:01.695Z,7.45
2022-12-28T21:48:30.059Z,7.42
2022-12-28T21:50:56.294Z,7.42
2022-12-28T21:53:22.559Z,7.39
2022-12-28T21:55:48.804Z,7.45
2022-12-28T21:58:15.194Z,7.43
2022-12-28T22:00:41.449Z,7.37
2022-12-28T22:03:07.768Z,7.36
2022-12-28T22:05:34.046Z,7.30
2022-12-28T22:08:00.247Z,7.26
2022-12-28T22:10:26.486Z,7.31
2022-12-28T22:12:52.701Z,7.29
2022-12-28T22:15:20.322Z,7.38
2022-12-28T22:17:46.593Z,7.31
2022-12-28T22:20:13.227Z,7.31
2022-12-28T22:22:39.442Z,7.30
2022-12-28T22:25:05.814Z,7.32
2022-12-28T22:27:32.183Z,7.31
2022-12-28T22:29:58.402Z,7.28
2022-12-28T22:32:24.606Z,7.29
2022-12-28T22:34:50.864Z,7.32
2022-12-28T22:37:17.099Z,7.27
2022-12-28T22:39:43.350Z,7.20
2022-12-28T22:42:09.589Z,7.24
2022-12-28T22:44:36.141Z,7.22
2022-12-28T22:47:02.491Z,7.27
2022-12-28T22:49:28.700Z,7.26
2022-12-28T22:51:54.941Z,7.21
2022-12-28T22:54:21.168Z,7.28
2022-12-28T22:56:47.393Z,7.26
2022-12-28T22:59:15.431Z,7.28
2022-12-28T23:01:42.173Z,7.29
2022-12-28T23:04:11.083Z,7.29
2022-12-28T23:06:37.323Z,7.31
2022-12-28T23:09:03.701Z,7.29
2022-12-28T23:11:30.004Z,7.31
2022-12-28T23:13:57.120Z,7.30
2022-12-28T23:16:23.403Z,7.29
2022-12-28T23:18:50.101Z,7.30
2022-12-28T23:21:20.274Z,7.30
2022-12-28T23:23:46.576Z,7.27
2022-12-28T23:26:13.380Z,7.22
2022-12-28T23:28:39.595Z,7.22
2022-12-28T23:31:05.963Z,7.25
2022-12-28T23:33:32.290Z,7.30
2022-12-28T23:36:01.243Z,7.28
2022-12-28T23:38:27.470Z,7.30
2022-12-28T23:40:53.699Z,7.27
2022-12-28T23:43:21.234Z,7.29
2022-12-28T23:45:47.483Z,7.25
2022-12-28T23:48:13.780Z,7.31
2022-12-28T23:50:40.084Z,7.27
2022-12-28T23:53:06.958Z,7.30
2022-12-28T23:55:33.329Z,7.25
2022-12-28T23:57:59.584Z,7.29
